Leon, Oklahoma
Current Conditions -  °F | °C
As of 8:15 AM on Sunday 21 Dec 2014 (Local Time) from KGLE Reporting Station
Haze Haze  
Wind Chill: 41°   Ceiling: 2200
Heat Index: 46°   Visibility: 5mi
Dew Point: 43°   Wind: 10mph
Humidity: 91%   Direction: 150°SSE
Pressure: 30.1"   Gusts: NA
Location:  33.88°N, 97.43°W
Report Text: KGLE 211415Z AUTO 15009KT 5SM BR SCT012 OVC022 08/06 A3010 RMK AO2 T00760062
Loading
Personal Weather Stations






























Interactive Weather Map New forecast layout! Learn more

10-Day Weather Forecast

Advertisements
Track Severe Weather on mobile